Terminal Aerodrome Forecast
Issued by NWS

Home | Current Version | Previous Version | Text Only | Print | Product List | Glossary On
Versions: 1 2 3 4 5 6 7 8 9 10 11 12 13 14 15 16 17
000
FTUS46 KMTR 270814 AAA
TAFOAK
TAF AMD
KOAK 270814Z 2708/2812 31005KT P6SM OVC006
     FM271700 28005KT P6SM FEW010
     FM272100 30014KT P6SM SKC
     FM280400 29009KT P6SM FEW012=

USA.gov is the U.S. government's official web portal to all federal, state and local government web resources and services.